Time;durP1;ratioP1;P1;durP2;ratioP2;P2;SDS_P1;SDS_P2;PMS_P1;PMS_P2;Temp;Humidity;BMP_temperature;BMP_pressure;BME280_temperature;BME280_humidity;BME280_pressure;Samples;Min_cycle;Max_cycle;Signal;HPM_P1;HPM_P2
2022/07/15 00:00:47;;;;;;;5.97;1.52;;;14.50;73.70;;;;;;5050108;28;20029;-46
2022/07/15 00:03:13;;;;;;;10.35;2.25;;;14.50;73.40;;;;;;5049755;28;20033;-47
2022/07/15 00:05:38;;;;;;;6.93;1.65;;;14.50;73.60;;;;;;5049325;28;20086;-46
2022/07/15 00:08:04;;;;;;;6.90;1.20;;;14.50;73.70;;;;;;5049609;28;20064;-47
2022/07/15 00:10:30;;;;;;;8.77;1.25;;;14.50;74.00;;;;;;5031697;28;20064;-47
2022/07/15 00:13:00;;;;;;;3.85;1.00;;;14.40;74.20;;;;;;5031569;28;20037;-45
2022/07/15 00:15:29;;;;;;;6.38;1.40;;;14.40;74.20;;;;;;5048997;28;20462;-46
2022/07/15 00:17:56;;;;;;;5.80;1.00;;;14.30;74.80;;;;;;5049107;28;20037;-48
2022/07/15 00:20:23;;;;;;;7.07;1.40;;;14.20;75.30;;;;;;5049293;28;20104;-46
2022/07/15 00:22:49;;;;;;;5.05;1.02;;;14.20;75.60;;;;;;5048770;28;20024;-46
2022/07/15 00:25:16;;;;;;;8.43;1.25;;;14.20;76.10;;;;;;5050016;28;20024;-46
2022/07/15 00:28:00;;;;;;;9.85;1.52;;;14.20;76.20;;;;;;5057101;28;20045;-47
2022/07/15 00:30:43;;;;;;;8.63;1.58;;;14.20;76.30;;;;;;5030074;28;20029;-48
2022/07/15 00:33:10;;;;;;;4.28;1.02;;;14.10;76.50;;;;;;5036643;28;20377;-48
2022/07/15 00:35:37;;;;;;;5.05;1.00;;;14.20;76.60;;;;;;5050192;28;20047;-47
2022/07/15 00:38:04;;;;;;;8.10;1.48;;;14.20;76.30;;;;;;5049649;28;20031;-47
2022/07/15 00:40:30;;;;;;;5.25;0.80;;;14.10;76.20;;;;;;5032178;28;20033;-48
2022/07/15 00:42:56;;;;;;;4.78;1.48;;;14.10;76.20;;;;;;5033187;28;20021;-46
2022/07/15 00:45:24;;;;;;;7.03;1.15;;;14.10;76.40;;;;;;5069136;28;20469;-47
2022/07/15 00:47:56;;;;;;;6.68;1.27;;;14.00;76.50;;;;;;5068572;28;20074;-46
2022/07/15 00:50:25;;;;;;;8.07;1.63;;;14.00;77.00;;;;;;5069473;28;20100;-48
2022/07/15 00:52:55;;;;;;;12.20;2.22;;;14.00;77.30;;;;;;5069255;28;20303;-49
2022/07/15 00:55:22;;;;;;;9.93;1.83;;;13.90;77.40;;;;;;5068686;28;20056;-45
2022/07/15 00:57:51;;;;;;;6.20;1.75;;;13.90;77.60;;;;;;5051528;28;20043;-45
2022/07/15 01:00:21;;;;;;;3.83;1.00;;;13.90;77.60;;;;;;5051593;28;20026;-46
2022/07/15 01:02:50;;;;;;;5.45;1.15;;;13.90;77.60;;;;;;5069307;28;20373;-45
2022/07/15 01:05:18;;;;;;;7.57;1.42;;;13.90;77.50;;;;;;5068780;28;20031;-45
2022/07/15 01:07:45;;;;;;;4.90;0.82;;;13.90;77.80;;;;;;5059141;28;20024;-45
2022/07/15 01:10:10;;;;;;;10.98;1.20;;;13.90;77.70;;;;;;5069419;28;20055;-45
2022/07/15 01:12:37;;;;;;;6.15;1.30;;;13.90;77.80;;;;;;5069640;28;20048;-46
2022/07/15 01:15:07;;;;;;;5.53;1.08;;;13.90;77.70;;;;;;5069483;28;20052;-46
2022/07/15 01:17:32;;;;;;;9.70;1.80;;;13.90;77.30;;;;;;5068942;28;20044;-46
2022/07/15 01:19:58;;;;;;;6.45;1.35;;;13.90;76.70;;;;;;5051180;28;20651;-45
2022/07/15 01:22:24;;;;;;;4.63;1.40;;;13.90;76.60;;;;;;5069164;28;20081;-49
2022/07/15 01:24:52;;;;;;;3.40;0.80;;;13.90;76.00;;;;;;5068562;28;20047;-47
2022/07/15 01:27:18;;;;;;;6.78;1.20;;;13.90;75.80;;;;;;5069302;28;20032;-47
2022/07/15 01:29:44;;;;;;;5.18;1.10;;;13.90;76.20;;;;;;5050956;28;20035;-48
2022/07/15 01:32:09;;;;;;;9.63;2.65;;;13.90;76.50;;;;;;5068424;28;20099;-46
2022/07/15 01:34:35;;;;;;;6.60;2.13;;;13.80;76.90;;;;;;5050655;28;20131;-46
2022/07/15 01:37:01;;;;;;;5.13;1.00;;;13.80;77.10;;;;;;5068806;28;20434;-45
2022/07/15 01:39:27;;;;;;;4.15;0.95;;;13.80;77.20;;;;;;5068172;28;20028;-46
2022/07/15 01:41:53;;;;;;;9.40;2.03;;;13.80;77.40;;;;;;5034630;28;20132;-45
2022/07/15 01:44:19;;;;;;;23.40;2.85;;;13.80;77.60;;;;;;5067591;28;20147;-46
2022/07/15 01:46:45;;;;;;;5.78;1.50;;;13.80;78.00;;;;;;5044979;28;20033;-45
2022/07/15 01:49:22;;;;;;;5.40;1.50;;;13.80;78.20;;;;;;5050445;28;20415;-46
2022/07/15 01:51:54;;;;;;;8.25;1.75;;;13.80;78.40;;;;;;5068311;28;20067;-45
2022/07/15 01:54:23;;;;;;;6.43;1.38;;;13.70;78.50;;;;;;5068586;28;20098;-46
2022/07/15 01:56:52;;;;;;;6.90;1.02;;;13.70;78.60;;;;;;5048651;28;20087;-45
2022/07/15 01:59:22;;;;;;;4.88;1.05;;;13.70;78.60;;;;;;5062185;28;20040;-45
2022/07/15 02:01:52;;;;;;;6.47;1.50;;;13.70;78.40;;;;;;5068071;28;20028;-46
2022/07/15 02:04:18;;;;;;;;;;;13.80;78.40;;;;;;5051346;28;20047;-46
2022/07/15 02:06:45;;;;;;;10.48;1.20;;;13.90;78.20;;;;;;5051004;28;19916;-47
2022/07/15 02:09:11;;;;;;;9.55;2.10;;;13.90;78.00;;;;;;5050703;28;20036;-45
2022/07/15 02:11:37;;;;;;;3.47;1.05;;;13.90;77.90;;;;;;5066857;28;20036;-48
2022/07/15 02:14:05;;;;;;;5.10;1.52;;;14.00;77.80;;;;;;5067784;28;20020;-45
2022/07/15 02:16:33;;;;;;;6.72;1.95;;;14.10;77.50;;;;;;5050383;28;20024;-45
2022/07/15 02:19:01;;;;;;;11.00;1.63;;;14.20;77.40;;;;;;5050088;28;20020;-45
2022/07/15 02:21:27;;;;;;;6.95;1.15;;;14.20;77.40;;;;;;5068156;28;20367;-45
2022/07/15 02:23:54;;;;;;;7.53;1.27;;;14.30;77.40;;;;;;5068488;28;20112;-46
2022/07/15 02:26:22;;;;;;;4.55;1.27;;;14.20;76.90;;;;;;5082903;28;20083;-45
2022/07/15 02:28:50;;;;;;;7.50;1.55;;;14.20;76.70;;;;;;5068456;28;20102;-45
2022/07/15 02:31:16;;;;;;;10.82;2.20;;;14.20;76.60;;;;;;5034040;28;20037;-47
2022/07/15 02:33:44;;;;;;;9.80;3.42;;;14.20;76.40;;;;;;5067710;28;20361;-46
2022/07/15 02:36:10;;;;;;;6.53;1.27;;;14.20;76.10;;;;;;5050772;28;20437;-45
2022/07/15 02:38:40;;;;;;;4.05;1.00;;;14.20;75.70;;;;;;5068458;28;20035;-46
2022/07/15 02:41:07;;;;;;;6.13;0.70;;;14.20;75.00;;;;;;5068118;28;20033;-45
2022/07/15 02:43:33;;;;;;;8.43;1.75;;;14.20;74.30;;;;;;5067530;28;20119;-47
2022/07/15 02:45:59;;;;;;;2.60;0.93;;;14.20;74.00;;;;;;5051114;28;20111;-45
2022/07/15 02:48:24;;;;;;;3.95;1.17;;;14.20;73.90;;;;;;5071705;28;20119;-47
2022/07/15 02:50:50;;;;;;;6.10;1.13;;;14.20;73.70;;;;;;5071712;28;20099;-47
2022/07/15 02:53:18;;;;;;;4.38;1.00;;;14.30;73.50;;;;;;5063171;28;20029;-47
2022/07/15 02:55:44;;;;;;;6.55;1.08;;;14.30;73.60;;;;;;5071343;28;20028;-45
2022/07/15 02:58:09;;;;;;;6.30;0.98;;;14.30;73.60;;;;;;5071400;28;20082;-45
2022/07/15 03:00:35;;;;;;;5.13;0.80;;;14.30;74.00;;;;;;5070882;28;20520;-46
2022/07/15 03:03:03;;;;;;;6.82;1.08;;;14.30;73.40;;;;;;5070213;28;20035;-46
2022/07/15 03:05:31;;;;;;;5.90;1.00;;;14.40;73.90;;;;;;5071110;28;20056;-46
2022/07/15 03:07:57;;;;;;;4.93;1.08;;;14.40;74.60;;;;;;5063642;28;20398;-46
2022/07/15 03:10:22;;;;;;;5.80;1.10;;;14.30;76.00;;;;;;5071497;28;20024;-46
2022/07/15 03:12:48;;;;;;;9.10;1.10;;;14.30;78.80;;;;;;5053848;28;20036;-46
2022/07/15 03:15:14;;;;;;;7.50;1.30;;;14.20;80.40;;;;;;5053882;28;20021;-46
2022/07/15 03:17:42;;;;;;;8.38;1.55;;;14.10;81.50;;;;;;5053438;28;20849;-48
2022/07/15 03:20:09;;;;;;;8.07;1.30;;;14.00;82.30;;;;;;5071071;28;20024;-46
2022/07/15 03:22:35;;;;;;;5.70;1.40;;;14.00;82.60;;;;;;5071265;28;20048;-46
2022/07/15 03:25:00;;;;;;;7.15;1.60;;;13.90;82.70;;;;;;5070922;28;20062;-46
2022/07/15 03:27:26;;;;;;;4.85;0.95;;;13.90;82.70;;;;;;5070993;28;20039;-47
2022/07/15 03:29:52;;;;;;;5.55;1.23;;;13.90;82.60;;;;;;5070608;28;20039;-47
2022/07/15 03:32:19;;;;;;;5.03;1.40;;;13.90;82.50;;;;;;5052444;28;20119;-46
2022/07/15 03:34:51;;;;;;;3.65;1.27;;;13.90;82.10;;;;;;5070450;28;20174;-47
2022/07/15 03:37:19;;;;;;;7.47;1.10;;;13.90;82.00;;;;;;5052020;28;20024;-46
2022/07/15 03:39:52;;;;;;;5.65;1.00;;;13.90;81.80;;;;;;5070486;28;20438;-46
2022/07/15 03:42:17;;;;;;;8.35;1.35;;;13.90;81.60;;;;;;5052327;28;20111;-45
2022/07/15 03:44:43;;;;;;;4.30;0.95;;;13.90;80.60;;;;;;5053030;28;20041;-47
2022/07/15 03:47:11;;;;;;;4.78;0.95;;;13.90;80.30;;;;;;5070723;28;20032;-47
2022/07/15 03:49:36;;;;;;;6.97;1.33;;;13.90;79.50;;;;;;5068542;28;20040;-47
2022/07/15 03:52:03;;;;;;;6.22;1.17;;;13.90;78.80;;;;;;5068871;28;20043;-47
2022/07/15 03:54:30;;;;;;;10.98;1.52;;;14.00;78.20;;;;;;5069993;28;20032;-47
2022/07/15 03:56:56;;;;;;;5.93;2.40;;;13.90;77.30;;;;;;5069554;28;20843;-46
2022/07/15 03:59:22;;;;;;;6.43;1.40;;;14.00;76.90;;;;;;5070027;28;20115;-47
2022/07/15 04:01:48;;;;;;;6.03;1.13;;;14.10;76.70;;;;;;5052653;28;20523;-46
2022/07/15 04:04:15;;;;;;;7.05;1.30;;;14.10;76.30;;;;;;5070069;28;20029;-46
2022/07/15 04:06:44;;;;;;;5.53;1.33;;;14.10;76.10;;;;;;5075329;28;20025;-47
2022/07/15 04:09:10;;;;;;;6.55;1.60;;;14.20;76.10;;;;;;5064469;28;20020;-46
2022/07/15 04:11:36;;;;;;;5.07;1.33;;;14.20;76.60;;;;;;5052031;28;20027;-46
2022/07/15 04:14:02;;;;;;;6.30;1.48;;;14.30;77.30;;;;;;5069721;28;20029;-46
2022/07/15 04:16:29;;;;;;;6.93;1.25;;;14.30;77.40;;;;;;5051733;28;20051;-48
2022/07/15 04:18:55;;;;;;;8.70;1.58;;;14.30;77.60;;;;;;5069528;28;20028;-49
2022/07/15 04:21:21;;;;;;;8.38;1.35;;;14.30;77.90;;;;;;5069702;28;20425;-47
2022/07/15 04:23:47;;;;;;;8.93;1.50;;;14.30;77.80;;;;;;5051819;28;20505;-46
2022/07/15 04:26:12;;;;;;;3.75;1.40;;;14.40;77.50;;;;;;5069410;28;20116;-47
2022/07/15 04:28:38;;;;;;;5.82;1.17;;;14.40;77.20;;;;;;5051834;28;20140;-51
2022/07/15 04:31:04;;;;;;;3.03;0.95;;;14.40;76.80;;;;;;5069435;28;20043;-50
2022/07/15 04:33:29;;;;;;;4.85;1.08;;;14.40;75.70;;;;;;5051741;28;20515;-48
2022/07/15 04:35:55;;;;;;;8.77;1.70;;;14.60;74.00;;;;;;5050508;28;20441;-47
2022/07/15 04:38:21;;;;;;;5.03;1.05;;;14.60;73.70;;;;;;5051226;28;20028;-46
2022/07/15 04:40:46;;;;;;;4.03;1.38;;;14.70;73.50;;;;;;5068681;28;20029;-46
2022/07/15 04:43:15;;;;;;;5.35;1.15;;;14.80;72.80;;;;;;5067869;28;20044;-46
2022/07/15 04:45:40;;;;;;;7.47;0.95;;;14.80;72.50;;;;;;5050891;28;20085;-46
2022/07/15 04:50:53;;;;;;;5.00;0.98;;;14.90;72.80;;;;;;5067590;28;20102;-47
2022/07/15 04:53:20;;;;;;;8.30;1.35;;;15.00;73.60;;;;;;5067886;28;20033;-46
2022/07/15 04:55:47;;;;;;;7.47;1.20;;;15.00;74.20;;;;;;5068521;28;20040;-47
2022/07/15 04:58:14;;;;;;;6.72;1.25;;;15.00;74.70;;;;;;5051625;28;20097;-47
2022/07/15 05:00:43;;;;;;;5.85;0.77;;;15.10;75.40;;;;;;5050998;28;20043;-46
2022/07/15 05:03:09;;;;;;;10.43;1.60;;;15.20;76.20;;;;;;5051364;28;20361;-47
2022/07/15 05:05:37;;;;;;;11.27;1.60;;;15.20;76.50;;;;;;5068680;28;20020;-48
2022/07/15 05:08:04;;;;;;;5.57;1.10;;;15.20;76.40;;;;;;5068250;28;20024;-46
2022/07/15 05:10:29;;;;;;;6.47;1.77;;;15.30;76.50;;;;;;5065427;28;20028;-47
2022/07/15 05:12:57;;;;;;;10.32;1.67;;;15.30;76.10;;;;;;5061056;28;20073;-48
2022/07/15 05:15:23;;;;;;;3.55;0.82;;;15.40;75.70;;;;;;5068603;28;20028;-47
2022/07/15 05:17:49;;;;;;;5.30;1.10;;;15.40;75.40;;;;;;5066479;28;20033;-48
2022/07/15 05:20:14;;;;;;;9.35;2.28;;;15.50;74.80;;;;;;5067447;28;20081;-46
2022/07/15 05:22:40;;;;;;;6.70;1.67;;;15.50;74.20;;;;;;5049792;28;20035;-48
2022/07/15 05:25:06;;;;;;;5.28;1.33;;;15.50;73.70;;;;;;5051020;28;20074;-51
2022/07/15 05:27:32;;;;;;;6.07;1.08;;;15.60;73.80;;;;;;5050568;28;20477;-49
2022/07/15 05:30:00;;;;;;;4.47;0.80;;;15.70;74.10;;;;;;5068264;28;20103;-47
2022/07/15 05:32:26;;;;;;;6.72;1.05;;;15.80;71.90;;;;;;5067799;28;20115;-49
2022/07/15 05:34:54;;;;;;;4.18;0.68;;;15.80;71.00;;;;;;5050041;28;20108;-46
2022/07/15 05:37:19;;;;;;;8.23;1.00;;;15.80;71.40;;;;;;5050177;28;20041;-46
2022/07/15 05:39:54;;;;;;;5.95;1.52;;;15.80;71.10;;;;;;5050401;28;20031;-47
2022/07/15 05:42:22;;;;;;;4.55;1.17;;;15.80;70.80;;;;;;5067261;28;20036;-47
2022/07/15 05:44:48;;;;;;;4.05;0.95;;;15.80;71.10;;;;;;5048296;28;20071;-47
2022/07/15 05:47:15;;;;;;;7.95;1.40;;;15.80;71.10;;;;;;5067309;28;20028;-50
2022/07/15 05:49:41;;;;;;;6.65;1.58;;;15.70;71.40;;;;;;5049022;28;20087;-46
2022/07/15 05:52:11;;;;;;;4.85;1.42;;;15.70;72.00;;;;;;5067278;28;20353;-49
2022/07/15 05:54:37;;;;;;;8.25;1.38;;;15.70;71.70;;;;;;5050137;28;20442;-48
2022/07/15 05:57:05;;;;;;;6.15;1.58;;;15.70;71.40;;;;;;5068482;28;20044;-46
2022/07/15 05:59:31;;;;;;;6.18;1.05;;;15.60;72.30;;;;;;5030620;28;20181;-46
2022/07/15 06:01:58;;;;;;;8.63;1.38;;;15.50;73.60;;;;;;5039035;28;20517;-47
2022/07/15 06:04:26;;;;;;;6.20;1.23;;;15.40;73.50;;;;;;5050238;28;20166;-48
2022/07/15 06:06:53;;;;;;;4.28;1.45;;;15.40;74.20;;;;;;5068522;28;20024;-48
2022/07/15 06:09:21;;;;;;;3.80;1.02;;;15.40;75.10;;;;;;5068136;28;20338;-46
2022/07/15 06:11:47;;;;;;;8.90;1.40;;;15.40;75.60;;;;;;5067909;28;20044;-46
2022/07/15 06:14:13;;;;;;;8.05;1.52;;;15.40;75.30;;;;;;5049958;28;20040;-46
2022/07/15 06:16:38;;;;;;;5.68;1.33;;;15.50;75.60;;;;;;5051065;28;20033;-47
2022/07/15 06:19:04;;;;;;;4.10;1.15;;;15.50;75.90;;;;;;5068298;28;20056;-48
2022/07/15 06:21:30;;;;;;;6.57;1.10;;;15.70;75.40;;;;;;5070419;28;20346;-46
2022/07/15 06:23:58;;;;;;;6.05;1.50;;;15.90;74.20;;;;;;5053575;28;20384;-45
2022/07/15 06:26:23;;;;;;;12.57;3.15;;;16.00;73.90;;;;;;5071787;28;20040;-46
2022/07/15 06:28:51;;;;;;;5.20;1.33;;;16.10;71.30;;;;;;5071917;28;20100;-45
2022/07/15 06:31:17;;;;;;;5.45;1.55;;;16.20;70.30;;;;;;5072274;28;20094;-46
2022/07/15 06:33:43;;;;;;;2.38;0.82;;;16.40;69.80;;;;;;5071604;28;20060;-46
2022/07/15 06:36:08;;;;;;;5.40;0.93;;;16.40;69.10;;;;;;5071761;28;20032;-48
2022/07/15 06:38:34;;;;;;;5.82;1.48;;;16.50;69.60;;;;;;5054316;28;20025;-46
2022/07/15 06:41:00;;;;;;;5.95;1.23;;;16.60;70.00;;;;;;5071439;28;20082;-46
2022/07/15 06:43:28;;;;;;;5.95;1.50;;;16.60;70.00;;;;;;5071335;28;20048;-45
2022/07/15 06:45:53;;;;;;;10.77;1.45;;;16.70;70.10;;;;;;5071670;28;20040;-46
2022/07/15 06:48:19;;;;;;;8.48;1.33;;;16.70;69.50;;;;;;5071233;28;20031;-46
2022/07/15 06:50:46;;;;;;;4.95;1.00;;;16.70;69.00;;;;;;5055122;28;20118;-45
2022/07/15 06:53:11;;;;;;;5.47;0.85;;;16.80;69.50;;;;;;5071053;28;20032;-44
2022/07/15 06:55:37;;;;;;;7.57;1.33;;;16.70;68.80;;;;;;5071161;28;20455;-46
2022/07/15 06:58:03;;;;;;;6.40;1.00;;;16.80;69.90;;;;;;5053739;28;20104;-46
2022/07/15 07:00:29;;;;;;;4.70;1.10;;;16.80;68.40;;;;;;5071624;28;20090;-46
2022/07/15 07:02:55;;;;;;;9.80;1.75;;;16.80;68.90;;;;;;5053316;28;20441;-46
2022/07/15 07:05:20;;;;;;;4.97;1.02;;;16.70;68.90;;;;;;5053244;28;20028;-45
2022/07/15 07:07:50;;;;;;;8.02;0.95;;;16.60;69.30;;;;;;5071164;28;20029;-46
2022/07/15 07:10:16;;;;;;;8.55;1.55;;;16.70;69.40;;;;;;5053016;28;20048;-45
2022/07/15 07:12:42;;;;;;;4.70;1.02;;;17.00;70.60;;;;;;5068304;28;20392;-45
2022/07/15 07:15:09;;;;;;;12.50;1.30;;;17.30;69.40;;;;;;5070204;28;20028;-45
2022/07/15 07:17:34;;;;;;;5.60;0.98;;;17.50;68.20;;;;;;5070729;28;20024;-47
2022/07/15 07:20:00;;;;;;;6.07;1.38;;;17.70;68.40;;;;;;5070099;28;20473;-46
2022/07/15 07:22:26;;;;;;;7.45;1.10;;;17.70;67.70;;;;;;5051823;28;20055;-45
2022/07/15 07:24:53;;;;;;;4.45;1.05;;;17.70;67.70;;;;;;5052919;28;20403;-45
2022/07/15 07:27:19;;;;;;;5.35;0.88;;;17.60;66.30;;;;;;5052737;28;20029;-46
2022/07/15 07:29:44;;;;;;;5.95;1.05;;;17.50;67.50;;;;;;5052816;28;20055;-46
2022/07/15 07:32:12;;;;;;;8.73;1.27;;;17.50;68.70;;;;;;5070096;28;20346;-46
2022/07/15 07:34:38;;;;;;;5.35;0.82;;;17.50;69.20;;;;;;5051903;28;20032;-44
2022/07/15 07:37:04;;;;;;;5.72;0.93;;;17.50;67.60;;;;;;5064304;28;20355;-46
2022/07/15 07:39:32;;;;;;;4.18;0.85;;;17.50;68.40;;;;;;5070510;28;20035;-46
2022/07/15 07:41:58;;;;;;;4.28;1.13;;;17.50;66.60;;;;;;5052735;28;20048;-46
2022/07/15 07:44:26;;;;;;;7.32;1.15;;;17.60;67.10;;;;;;5069745;28;20102;-46
2022/07/15 07:46:51;;;;;;;5.43;0.80;;;17.80;67.10;;;;;;5070460;28;20016;-46
2022/07/15 07:49:17;;;;;;;3.47;0.60;;;17.60;67.60;;;;;;5069726;28;20381;-46
2022/07/15 07:51:43;;;;;;;7.22;1.55;;;17.50;67.30;;;;;;5070102;28;20021;-46
2022/07/15 07:54:09;;;;;;;4.25;1.15;;;17.40;68.70;;;;;;5070160;28;20031;-48
2022/07/15 07:56:35;;;;;;;5.43;0.85;;;17.30;68.10;;;;;;5072659;28;20035;-46
2022/07/15 07:59:03;;;;;;;2.30;0.77;;;17.20;67.70;;;;;;5069387;28;20373;-49
2022/07/15 08:01:31;;;;;;;5.65;0.98;;;17.20;67.10;;;;;;5070134;28;20459;-47
2022/07/15 08:03:57;;;;;;;5.80;0.82;;;17.00;67.70;;;;;;5069302;28;20044;-48
2022/07/15 08:06:23;;;;;;;6.07;1.00;;;17.20;67.90;;;;;;5035058;28;20032;-47
2022/07/15 08:08:48;;;;;;;3.42;0.70;;;17.30;67.30;;;;;;5051766;28;20060;-47
2022/07/15 08:11:19;;;;;;;3.35;0.80;;;17.60;66.10;;;;;;5049677;28;20095;-46
2022/07/15 08:13:44;;;;;;;5.38;0.90;;;17.70;65.90;;;;;;5068636;28;20044;-47
2022/07/15 08:16:12;;;;;;;3.58;1.13;;;17.80;66.70;;;;;;5069104;28;20028;-47
2022/07/15 08:18:40;;;;;;;5.78;0.70;;;17.80;65.00;;;;;;5051550;28;20062;-46
2022/07/15 08:21:06;;;;;;;3.20;0.50;;;17.60;64.90;;;;;;5069431;28;20030;-46
2022/07/15 08:23:32;;;;;;;3.78;1.10;;;17.50;66.50;;;;;;5069984;28;20372;-46
2022/07/15 08:25:58;;;;;;;3.67;0.60;;;17.60;66.50;;;;;;5052143;28;20032;-46
2022/07/15 08:28:26;;;;;;;2.95;1.08;;;17.70;67.50;;;;;;5066055;28;20103;-47
2022/07/15 08:30:52;;;;;;;3.10;0.88;;;17.60;67.80;;;;;;5051784;28;20033;-46
2022/07/15 08:33:18;;;;;;;6.60;1.75;;;17.60;67.90;;;;;;5068850;28;20082;-47
2022/07/15 08:35:43;;;;;;;3.35;0.57;;;17.70;67.70;;;;;;5047868;28;20045;-46
2022/07/15 08:38:10;;;;;;;4.28;0.98;;;17.60;67.60;;;;;;5068965;28;20043;-46
2022/07/15 08:40:39;;;;;;;1.85;0.57;;;17.70;67.50;;;;;;5068854;28;20043;-46
2022/07/15 08:43:09;;;;;;;4.50;0.75;;;17.60;68.50;;;;;;5068678;28;20033;-48
2022/07/15 08:45:37;;;;;;;;;;;17.50;69.50;;;;;;5068489;28;20025;-46
2022/07/15 08:48:06;;;;;;;3.47;1.05;;;17.40;70.40;;;;;;5069009;28;19908;-45
2022/07/15 08:50:33;;;;;;;5.40;0.80;;;17.00;72.90;;;;;;5068531;28;20333;-48
2022/07/15 08:52:59;;;;;;;5.57;0.90;;;16.70;74.30;;;;;;5068801;28;20059;-46
2022/07/15 08:55:27;;;;;;;5.90;0.90;;;16.70;74.00;;;;;;5069483;28;20056;-46
2022/07/15 08:57:53;;;;;;;2.15;0.60;;;16.80;73.90;;;;;;5069300;28;20048;-50
2022/07/15 09:00:30;;;;;;;2.63;0.55;;;17.00;73.80;;;;;;5068042;28;20020;-46
2022/07/15 09:03:06;;;;;;;2.40;0.70;;;17.20;72.50;;;;;;5068980;28;20025;-47
2022/07/15 09:05:34;;;;;;;3.80;0.60;;;17.40;71.50;;;;;;5068901;28;20031;-48
2022/07/15 09:08:06;;;;;;;4.45;0.93;;;17.50;71.50;;;;;;5069004;28;20345;-48
2022/07/15 09:10:44;;;;;;;2.88;0.50;;;17.80;71.60;;;;;;5068871;28;20039;-46
2022/07/15 09:13:27;;;;;;;2.03;0.55;;;17.80;71.10;;;;;;5068932;28;20040;-46
2022/07/15 09:15:54;;;;;;;3.47;0.55;;;18.10;71.00;;;;;;5068638;28;20043;-49
2022/07/15 09:18:22;;;;;;;3.20;0.60;;;18.70;69.20;;;;;;5068455;28;20446;-48
2022/07/15 09:20:49;;;;;;;3.67;1.10;;;19.50;67.70;;;;;;5068091;28;20028;-47
2022/07/15 09:23:29;;;;;;;3.17;0.90;;;20.10;67.20;;;;;;5050578;28;20052;-48
2022/07/15 09:25:58;;;;;;;;;;;20.90;65.40;;;;;;5069225;28;20052;-47
2022/07/15 09:28:44;;;;;;;4.50;0.50;;;21.20;61.30;;;;;;5084291;28;19994;-47
2022/07/15 09:34:02;;;;;;;4.82;0.73;;;20.90;61.90;;;;;;5068356;28;20040;-48
2022/07/15 09:36:31;;;;;;;3.15;1.05;;;20.40;62.60;;;;;;5067819;28;20055;-46
2022/07/15 09:38:58;;;;;;;2.83;0.53;;;19.90;62.00;;;;;;5068445;28;20115;-47
2022/07/15 09:41:31;;;;;;;2.38;0.60;;;19.30;62.60;;;;;;5048992;28;20108;-46
2022/07/15 09:44:12;;;;;;;3.15;0.63;;;18.60;64.80;;;;;;5047751;28;20079;-47
2022/07/15 09:46:52;;;;;;;3.90;1.48;;;19.10;60.80;;;;;;5068387;28;20028;-46
2022/07/15 09:49:24;;;;;;;3.33;0.68;;;19.50;60.80;;;;;;5048824;28;20461;-47
2022/07/15 09:51:55;;;;;;;2.65;0.77;;;19.90;61.00;;;;;;5067666;28;20408;-47
2022/07/15 09:54:32;;;;;;;2.25;0.60;;;20.30;59.30;;;;;;5049985;28;20066;-47
2022/07/15 09:56:59;;;;;;;3.10;0.60;;;20.60;61.30;;;;;;5054358;28;20114;-47
2022/07/15 09:59:25;;;;;;;3.00;0.50;;;20.50;58.10;;;;;;5071737;28;20028;-47
2022/07/15 10:01:53;;;;;;;5.10;0.98;;;20.40;59.80;;;;;;5071498;28;20115;-46
2022/07/15 10:04:21;;;;;;;3.50;0.50;;;20.30;57.90;;;;;;5070527;28;20017;-46
2022/07/15 10:06:52;;;;;;;2.03;0.40;;;20.00;58.90;;;;;;5069917;28;20457;-46
2022/07/15 10:09:28;;;;;;;3.80;0.55;;;19.90;61.00;;;;;;5055369;28;20607;-45
2022/07/15 10:12:01;;;;;;;7.15;0.73;;;19.90;59.90;;;;;;5071121;28;20036;-48
2022/07/15 10:14:33;;;;;;;3.55;0.70;;;19.80;59.40;;;;;;5071471;28;20544;-46
2022/07/15 10:17:34;;;;;;;2.17;0.60;;;19.90;60.10;;;;;;5054052;28;20047;-48
2022/07/15 10:20:37;;;;;;;3.97;0.60;;;20.10;58.80;;;;;;5030097;28;20036;-46
2022/07/15 10:23:36;;;;;;;4.88;0.70;;;20.20;57.40;;;;;;5054228;28;20035;-49
2022/07/15 10:26:37;;;;;;;4.65;0.70;;;20.40;58.90;;;;;;5071019;28;20060;-47
2022/07/15 10:29:05;;;;;;;4.43;0.73;;;20.40;57.20;;;;;;5071457;28;20138;-46
2022/07/15 10:31:33;;;;;;;4.68;0.82;;;20.40;57.40;;;;;;5053440;28;20138;-46
2022/07/15 10:34:07;;;;;;;4.40;0.77;;;20.10;58.90;;;;;;5070427;28;20104;-46
2022/07/15 10:36:46;;;;;;;4.10;0.93;;;19.90;61.00;;;;;;5069931;28;20388;-48
2022/07/15 10:39:12;;;;;;;4.43;0.90;;;19.70;60.20;;;;;;5071011;28;20346;-47
2022/07/15 10:41:58;;;;;;;3.10;0.90;;;20.10;59.70;;;;;;5070543;28;20221;-46
2022/07/15 10:44:32;;;;;;;4.53;0.68;;;19.90;61.10;;;;;;5068897;28;20024;-48
2022/07/15 10:47:13;;;;;;;2.78;1.20;;;20.00;60.60;;;;;;5053503;28;20033;-46
2022/07/15 10:49:40;;;;;;;4.35;1.65;;;20.10;61.30;;;;;;5071846;28;20473;-49
2022/07/15 10:52:14;;;;;;;5.65;1.08;;;20.20;60.70;;;;;;5071368;28;20016;-47
2022/07/15 10:54:43;;;;;;;2.88;0.50;;;20.20;60.80;;;;;;5053676;28;20029;-47
2022/07/15 10:57:09;;;;;;;5.63;1.52;;;20.00;60.60;;;;;;5071738;28;20361;-47
2022/07/15 10:59:40;;;;;;;5.43;0.88;;;19.90;61.60;;;;;;5071715;28;20381;-47
2022/07/15 11:02:06;;;;;;;3.92;0.70;;;20.10;62.80;;;;;;5071333;28;20040;-46
2022/07/15 11:04:33;;;;;;;2.75;0.50;;;20.30;61.30;;;;;;5070079;28;20063;-46
2022/07/15 11:07:09;;;;;;;6.45;1.40;;;20.20;61.00;;;;;;5070453;28;20083;-46
2022/07/15 11:09:47;;;;;;;5.03;1.10;;;19.90;61.60;;;;;;5071682;28;20465;-47
2022/07/15 11:12:19;;;;;;;6.07;1.55;;;19.60;61.20;;;;;;5071006;28;20028;-46
2022/07/15 11:15:01;;;;;;;3.75;0.70;;;19.70;63.00;;;;;;5070796;28;20037;-49
2022/07/15 11:17:31;;;;;;;6.18;1.00;;;19.50;62.70;;;;;;5070997;28;20111;-48
2022/07/15 11:20:09;;;;;;;6.95;1.40;;;19.10;63.40;;;;;;5071081;28;20131;-47
2022/07/15 11:22:41;;;;;;;3.97;0.93;;;18.90;64.90;;;;;;5070674;28;20743;-46
2022/07/15 11:25:26;;;;;;;9.05;1.95;;;18.90;65.00;;;;;;5071066;28;20059;-46
2022/07/15 11:28:12;;;;;;;5.38;1.42;;;19.30;65.00;;;;;;5063500;28;20402;-46
2022/07/15 11:30:44;;;;;;;4.13;0.98;;;19.50;64.00;;;;;;5070566;28;20036;-45
2022/07/15 11:33:15;;;;;;;4.22;0.75;;;19.30;64.20;;;;;;5070963;28;20024;-48
2022/07/15 11:35:56;;;;;;;4.60;0.80;;;18.90;66.20;;;;;;5070474;28;20365;-46
2022/07/15 11:38:37;;;;;;;4.00;0.90;;;19.10;65.70;;;;;;5052928;28;20039;-48
2022/07/15 11:44:30;;;;;;;5.85;1.67;;;19.00;65.80;;;;;;5069254;28;20050;-48
2022/07/15 11:46:59;;;;;;;4.63;1.20;;;18.80;65.50;;;;;;5070744;28;20104;-46
2022/07/15 11:49:31;;;;;;;4.20;0.95;;;18.60;67.10;;;;;;5070633;28;20123;-47
2022/07/15 11:51:58;;;;;;;5.03;1.15;;;18.50;67.00;;;;;;5070096;28;20020;-46
2022/07/15 11:54:25;;;;;;;4.00;1.17;;;18.50;67.70;;;;;;5070174;28;20036;-46
2022/07/15 11:56:58;;;;;;;4.53;1.33;;;18.70;67.30;;;;;;5070029;28;20669;-48
2022/07/15 11:59:24;;;;;;;5.47;0.98;;;18.70;67.00;;;;;;5069999;28;20429;-48
2022/07/15 12:02:06;;;;;;;4.30;0.93;;;18.70;67.50;;;;;;5052370;28;20071;-47
2022/07/15 12:04:36;;;;;;;6.72;2.08;;;18.70;66.40;;;;;;5051954;28;20021;-46
2022/07/15 12:07:02;;;;;;;3.67;0.82;;;18.70;67.40;;;;;;5070004;28;20045;-46
2022/07/15 12:09:50;;;;;;;7.38;1.75;;;18.60;66.90;;;;;;5052174;28;20128;-48
2022/07/15 12:12:17;;;;;;;4.85;1.33;;;18.40;70.50;;;;;;5069750;28;20035;-47
2022/07/15 12:14:48;;;;;;;7.93;0.88;;;18.00;73.40;;;;;;5069597;28;20565;-47
2022/07/15 12:17:14;;;;;;;6.53;1.17;;;17.80;74.70;;;;;;5051533;28;20103;-44
2022/07/15 12:19:45;;;;;;;3.92;0.90;;;17.80;73.60;;;;;;5068360;28;20052;-47
2022/07/15 12:22:11;;;;;;;3.72;1.02;;;17.90;74.90;;;;;;5050683;28;20705;-46
2022/07/15 12:24:52;;;;;;;7.55;1.05;;;18.00;73.10;;;;;;5066636;28;20032;-44
2022/07/15 12:27:33;;;;;;;2.67;0.70;;;18.20;70.80;;;;;;5050105;28;20338;-46
2022/07/15 12:30:05;;;;;;;3.17;0.68;;;18.20;70.10;;;;;;5068688;28;20119;-46
2022/07/15 12:32:31;;;;;;;2.88;0.80;;;18.40;70.50;;;;;;5082019;28;20036;-47
2022/07/15 12:34:58;;;;;;;4.00;0.88;;;18.50;70.00;;;;;;5069724;28;20138;-49
2022/07/15 12:37:28;;;;;;;5.47;1.13;;;18.90;68.70;;;;;;5051675;28;20789;-45
2022/07/15 12:39:58;;;;;;;;;;;18.90;68.90;;;;;;5051492;28;20028;-48
2022/07/15 12:42:44;;;;;;;2.47;0.60;;;18.80;67.00;;;;;;5050916;28;19969;-47
2022/07/15 12:45:37;;;;;;;2.53;0.77;;;18.70;67.60;;;;;;5067485;28;20098;-46
2022/07/15 12:48:09;;;;;;;4.97;1.13;;;18.90;67.10;;;;;;5050530;28;20449;-48
2022/07/15 12:50:36;;;;;;;3.20;0.60;;;19.00;66.90;;;;;;5068361;28;20070;-48
2022/07/15 12:53:05;;;;;;;1.75;0.60;;;19.20;67.20;;;;;;5050554;28;20024;-50
2022/07/15 12:55:41;;;;;;;4.68;0.98;;;19.40;65.50;;;;;;5051233;28;20043;-47
2022/07/15 12:58:09;;;;;;;3.47;0.57;;;19.40;66.30;;;;;;5063125;28;20037;-47
2022/07/15 13:00:37;;;;;;;1.85;0.68;;;19.80;65.20;;;;;;5043017;28;20137;-47
2022/07/15 13:03:13;;;;;;;2.63;0.82;;;19.70;63.90;;;;;;5057706;28;20434;-46
2022/07/15 13:05:44;;;;;;;2.58;0.80;;;19.60;64.50;;;;;;5056243;28;20036;-48